createdAt,value
2018-04-26T00:01:41.500Z,61.30
2018-04-26T00:04:08.718Z,61.30
2018-04-26T00:06:35.975Z,61.30
2018-04-26T00:09:03.186Z,61.40
2018-04-26T00:11:31.194Z,61.40
2018-04-26T00:13:58.384Z,61.40
2018-04-26T00:16:25.555Z,61.30
2018-04-26T00:18:53.571Z,61.40
2018-04-26T00:21:20.825Z,61.40
2018-04-26T00:23:48.078Z,61.20
2018-04-26T00:26:15.329Z,61.30
2018-04-26T00:28:42.492Z,61.50
2018-04-26T00:31:09.693Z,61.30
2018-04-26T00:33:37.627Z,60.70
2018-04-26T00:36:04.831Z,60.70
2018-04-26T00:38:32.003Z,60.50
2018-04-26T00:40:59.973Z,60.50
2018-04-26T00:43:27.164Z,60.50
2018-04-26T00:45:54.396Z,60.40
2018-04-26T00:48:21.569Z,60.50
2018-04-26T00:50:49.505Z,60.50
2018-04-26T00:53:16.792Z,60.50
2018-04-26T00:55:43.962Z,60.50
2018-04-26T00:58:11.900Z,60.60
2018-04-26T01:00:39.132Z,60.60
2018-04-26T01:03:06.313Z,60.70
2018-04-26T01:05:33.479Z,60.70
2018-04-26T01:08:01.419Z,60.90
2018-04-26T01:10:28.589Z,60.90
2018-04-26T01:12:55.812Z,60.70
2018-04-26T01:15:23.065Z,60.80
2018-04-26T01:17:50.251Z,61.00
2018-04-26T01:20:17.424Z,60.90
2018-04-26T01:22:45.368Z,61.00
2018-04-26T01:25:12.537Z,60.90
2018-04-26T01:27:40.488Z,61.10
2018-04-26T01:30:07.655Z,61.10
2018-04-26T01:32:35.592Z,61.10
2018-04-26T01:35:02.765Z,61.10
2018-04-26T01:37:35.936Z,61.10
2018-04-26T01:40:03.176Z,61.30
2018-04-26T01:42:30.427Z,61.10
2018-04-26T01:44:57.597Z,61.00
2018-04-26T01:47:24.836Z,61.00
2018-04-26T01:49:52.084Z,61.00
2018-04-26T01:52:19.376Z,61.00
2018-04-26T01:54:46.629Z,61.00
2018-04-26T01:57:13.830Z,60.90
2018-04-26T01:59:41.003Z,60.90
2018-04-26T02:02:08.180Z,60.80
2018-04-26T02:04:35.344Z,60.90
2018-04-26T02:07:02.615Z,61.00
2018-04-26T02:09:30.621Z,60.80
2018-04-26T02:11:57.795Z,60.80
2018-04-26T02:14:24.966Z,60.90
2018-04-26T02:16:52.124Z,61.00
2018-04-26T02:19:20.063Z,60.90
2018-04-26T02:21:47.258Z,60.80
2018-04-26T02:24:15.276Z,60.90
2018-04-26T02:26:42.475Z,60.80
2018-04-26T02:29:10.407Z,60.90
2018-04-26T02:31:37.686Z,60.90
2018-04-26T02:34:04.864Z,60.70
2018-04-26T02:36:32.056Z,61.10
2018-04-26T02:38:59.813Z,61.00
2018-04-26T02:41:27.071Z,60.90
2018-04-26T02:43:54.324Z,60.70
2018-04-26T02:46:21.501Z,60.80
2018-04-26T02:48:48.701Z,60.70
2018-04-26T02:51:15.876Z,60.70
2018-04-26T02:53:43.169Z,60.70
2018-04-26T02:56:11.115Z,60.80
2018-04-26T02:58:38.357Z,60.70
2018-04-26T03:01:06.634Z,60.60
2018-04-26T03:03:33.889Z,60.70
2018-04-26T03:06:01.141Z,60.80
2018-04-26T03:08:28.304Z,60.80
2018-04-26T03:10:55.473Z,60.70
2018-04-26T03:13:22.639Z,60.70
2018-04-26T03:15:49.882Z,60.80
2018-04-26T03:18:17.101Z,60.70
2018-04-26T03:20:44.353Z,60.70
2018-04-26T03:23:11.520Z,60.70
2018-04-26T03:25:38.693Z,60.80
2018-04-26T03:28:05.910Z,60.90
2018-04-26T03:30:33.071Z,61.00
2018-04-26T03:33:00.244Z,60.90
2018-04-26T03:35:27.414Z,60.80
2018-04-26T03:37:55.352Z,60.80
2018-04-26T03:40:22.523Z,61.50
2018-04-26T03:42:49.741Z,60.70
2018-04-26T03:45:16.909Z,61.40
2018-04-26T03:47:44.177Z,60.70
2018-04-26T03:50:12.933Z,60.60
2018-04-26T03:52:40.100Z,60.60
2018-04-26T03:55:07.336Z,60.60
2018-04-26T03:57:34.507Z,60.60
2018-04-26T04:00:07.756Z,60.60
2018-04-26T04:02:40.922Z,60.60
2018-04-26T04:05:15.740Z,60.70
2018-04-26T04:07:42.913Z,60.60
2018-04-26T04:10:10.848Z,60.70
2018-04-26T04:12:38.181Z,60.70
2018-04-26T04:15:05.391Z,60.70
2018-04-26T04:17:33.407Z,60.70
2018-04-26T04:20:01.475Z,60.70
2018-04-26T04:22:28.735Z,60.70
2018-04-26T04:24:55.904Z,60.70
2018-04-26T04:27:23.081Z,60.70
2018-04-26T04:29:51.022Z,60.70
2018-04-26T04:32:18.189Z,60.70
2018-04-26T04:34:45.418Z,60.70
2018-04-26T04:37:12.585Z,60.70
2018-04-26T04:39:39.862Z,60.70
2018-04-26T04:42:07.801Z,60.70
2018-04-26T04:44:35.075Z,60.70
2018-04-26T04:47:02.248Z,60.60
2018-04-26T04:49:30.293Z,60.70
2018-04-26T04:51:57.459Z,60.70
2018-04-26T04:54:26.485Z,60.70
2018-04-26T04:56:53.669Z,60.70
2018-04-26T04:59:20.837Z,60.70
2018-04-26T05:01:48.009Z,60.70
2018-04-26T05:04:15.953Z,60.70
2018-04-26T05:06:43.128Z,60.60
2018-04-26T05:09:11.095Z,61.10
2018-04-26T05:11:39.123Z,60.80
2018-04-26T05:14:06.340Z,60.70
2018-04-26T05:16:34.660Z,60.70
2018-04-26T05:19:02.944Z,60.40
2018-04-26T05:21:31.903Z,60.10
2018-04-26T05:23:59.137Z,59.90
2018-04-26T05:26:28.741Z,59.80
2018-04-26T05:28:56.701Z,59.80
2018-04-26T05:31:24.667Z,60.00
2018-04-26T05:33:52.637Z,60.10
2018-04-26T05:36:19.808Z,60.10
2018-04-26T05:38:47.762Z,60.10
2018-04-26T05:41:15.712Z,60.30
2018-04-26T05:43:42.908Z,60.20
2018-04-26T05:46:10.076Z,60.30
2018-04-26T05:48:37.244Z,60.20
2018-04-26T05:51:04.459Z,60.40
2018-04-26T05:53:32.469Z,60.40
2018-04-26T05:55:59.699Z,60.40
2018-04-26T05:58:27.609Z,60.30
2018-04-26T06:00:54.846Z,60.30
2018-04-26T06:03:22.412Z,60.70
2018-04-26T06:05:49.659Z,60.70
2018-04-26T06:08:16.829Z,60.30
2018-04-26T06:10:44.065Z,60.30
2018-04-26T06:13:11.273Z,60.20
2018-04-26T06:15:39.215Z,60.00
2018-04-26T06:18:06.386Z,60.00
2018-04-26T06:20:34.408Z,60.20
2018-04-26T06:23:01.576Z,60.10
2018-04-26T06:25:28.910Z,60.30
2018-04-26T06:27:56.167Z,60.30
2018-04-26T06:30:23.339Z,60.30
2018-04-26T06:32:50.530Z,60.30
2018-04-26T06:35:18.471Z,60.20
2018-04-26T06:37:45.660Z,60.20
2018-04-26T06:40:12.821Z,60.30
2018-04-26T06:42:39.986Z,60.30
2018-04-26T06:45:07.184Z,60.40
2018-04-26T06:47:35.127Z,60.40
2018-04-26T06:50:02.324Z,60.40
2018-04-26T06:52:30.368Z,60.20
2018-04-26T06:54:57.576Z,60.10
2018-04-26T06:57:24.739Z,60.30
2018-04-26T06:59:51.954Z,60.10
2018-04-26T07:02:19.968Z,60.40
2018-04-26T07:04:47.137Z,60.40
2018-04-26T07:07:14.327Z,60.30
2018-04-26T07:09:42.260Z,60.30
2018-04-26T07:12:09.467Z,60.30
2018-04-26T07:14:36.743Z,60.40
2018-04-26T07:17:03.996Z,60.40
2018-04-26T07:19:31.165Z,60.50
2018-04-26T07:21:58.339Z,60.40
2018-04-26T07:24:26.297Z,60.80
2018-04-26T07:26:53.470Z,60.50
2018-04-26T07:29:21.400Z,61.10
2018-04-26T07:31:48.641Z,60.70
2018-04-26T07:34:15.896Z,60.60
2018-04-26T07:36:43.060Z,60.70
2018-04-26T07:39:10.228Z,60.40
2018-04-26T07:41:37.452Z,60.30
2018-04-26T07:44:04.624Z,60.10
2018-04-26T07:46:31.822Z,60.10
2018-04-26T07:48:59.001Z,60.00
2018-04-26T07:51:26.263Z,60.00
2018-04-26T07:53:53.514Z,60.70
2018-04-26T07:56:20.767Z,60.20
2018-04-26T07:58:47.937Z,60.30
2018-04-26T08:01:15.100Z,60.50
2018-04-26T08:03:42.299Z,60.50
2018-04-26T08:06:09.461Z,60.50
2018-04-26T08:08:36.657Z,60.80
2018-04-26T08:11:03.877Z,60.90
2018-04-26T08:13:31.050Z,60.90
2018-04-26T08:15:58.211Z,60.90
2018-04-26T08:18:25.377Z,61.00
2018-04-26T08:20:52.544Z,61.20
2018-04-26T08:23:20.473Z,61.30
2018-04-26T08:25:47.640Z,61.30
2018-04-26T08:28:14.809Z,61.20
2018-04-26T08:30:43.108Z,61.20
2018-04-26T08:35:51.709Z,61.40
2018-04-26T08:38:18.878Z,61.40
2018-04-26T08:40:46.836Z,61.40
2018-04-26T08:43:14.865Z,61.20
2018-04-26T08:45:42.036Z,61.20
2018-04-26T08:48:09.269Z,61.10
2018-04-26T08:50:36.476Z,61.30
2018-04-26T08:53:04.412Z,61.40
2018-04-26T08:55:31.644Z,61.40
2018-04-26T08:57:58.808Z,61.50
2018-04-26T09:00:25.975Z,61.50
2018-04-26T09:02:53.137Z,61.70
2018-04-26T09:05:20.304Z,61.50
2018-04-26T09:07:48.242Z,61.40
2018-04-26T09:10:15.404Z,61.40
2018-04-26T09:12:42.571Z,61.70
2018-04-26T09:15:10.505Z,61.50
2018-04-26T09:17:37.676Z,61.50
2018-04-26T09:20:04.876Z,61.30
2018-04-26T09:22:32.049Z,61.30
2018-04-26T09:24:59.211Z,61.20
2018-04-26T09:27:26.385Z,61.50
2018-04-26T09:29:53.600Z,61.10
2018-04-26T09:32:20.784Z,61.30
2018-04-26T09:34:47.953Z,61.60
2018-04-26T09:37:15.976Z,61.90
2018-04-26T09:39:43.148Z,61.90
2018-04-26T09:42:10.316Z,61.60
2018-04-26T09:44:37.481Z,61.50
2018-04-26T09:47:05.413Z,61.60
2018-04-26T09:49:32.585Z,61.30
2018-04-26T09:51:59.748Z,61.20
2018-04-26T09:54:27.054Z,61.20
2018-04-26T09:56:54.216Z,61.20
2018-04-26T09:59:21.461Z,61.10
2018-04-26T10:01:48.645Z,61.20
2018-04-26T10:04:15.816Z,61.40
2018-04-26T10:06:49.500Z,61.50
2018-04-26T10:09:16.665Z,61.50
2018-04-26T10:11:43.831Z,61.50
2018-04-26T10:14:11.762Z,61.50
2018-04-26T10:16:38.924Z,61.50
2018-04-26T10:19:06.091Z,61.50
2018-04-26T10:21:34.021Z,61.50
2018-04-26T10:24:01.194Z,61.50
2018-04-26T10:26:28.361Z,61.70
2018-04-26T10:28:56.292Z,61.10
2018-04-26T10:31:23.456Z,61.50
2018-04-26T10:33:50.691Z,61.50
2018-04-26T10:36:17.853Z,61.40
2018-04-26T10:38:45.097Z,62.10
2018-04-26T10:41:12.345Z,61.40
2018-04-26T10:43:39.701Z,62.00
2018-04-26T10:46:06.869Z,61.50
2018-04-26T10:48:34.032Z,61.30
2018-04-26T10:51:01.981Z,61.50
2018-04-26T10:53:29.148Z,61.50
2018-04-26T10:55:56.319Z,61.60
2018-04-26T10:58:23.497Z,61.70
2018-04-26T11:00:50.704Z,61.70
2018-04-26T11:03:17.867Z,61.90
2018-04-26T11:05:45.085Z,61.90
2018-04-26T11:08:12.257Z,61.90
2018-04-26T11:10:39.490Z,61.90
2018-04-26T11:13:06.751Z,61.90
2018-04-26T11:15:33.921Z,61.80
2018-04-26T11:18:01.092Z,62.00
2018-04-26T11:20:29.033Z,61.80
2018-04-26T11:22:56.233Z,61.60
2018-04-26T11:25:24.164Z,61.30
2018-04-26T11:27:51.352Z,61.30
2018-04-26T11:30:19.360Z,61.30
2018-04-26T11:32:46.609Z,61.30
2018-04-26T11:35:14.076Z,61.30
2018-04-26T11:37:41.369Z,61.30
2018-04-26T11:40:08.561Z,61.30
2018-04-26T11:42:35.749Z,61.50
2018-04-26T11:45:02.912Z,61.70
2018-04-26T11:47:30.143Z,61.70
2018-04-26T11:49:57.396Z,61.60
2018-04-26T11:52:24.614Z,61.60
2018-04-26T11:54:52.620Z,61.70
2018-04-26T11:57:19.870Z,61.70
2018-04-26T11:59:47.068Z,61.70
2018-04-26T12:02:14.344Z,61.90
2018-04-26T12:04:41.737Z,61.90
2018-04-26T12:07:08.905Z,62.00
2018-04-26T12:09:36.102Z,62.10
2018-04-26T12:12:04.033Z,62.10
2018-04-26T12:14:31.202Z,62.10
2018-04-26T12:16:58.368Z,62.30
2018-04-26T12:19:26.309Z,62.30
2018-04-26T12:21:54.288Z,62.30
2018-04-26T12:24:21.481Z,62.40
2018-04-26T12:26:48.655Z,62.60
2018-04-26T12:29:15.849Z,62.30
2018-04-26T12:31:43.044Z,62.40
2018-04-26T12:34:10.211Z,62.20
2018-04-26T12:36:37.410Z,62.30
2018-04-26T12:39:05.377Z,62.50
2018-04-26T12:41:32.540Z,62.20
2018-04-26T12:44:00.567Z,62.20
2018-04-26T12:46:27.815Z,62.20
2018-04-26T12:48:55.069Z,62.00
2018-04-26T12:51:22.427Z,62.10
2018-04-26T12:53:49.614Z,62.10
2018-04-26T12:56:16.825Z,62.20
2018-04-26T12:58:44.012Z,62.00
2018-04-26T13:01:11.233Z,62.00
2018-04-26T13:03:38.402Z,61.90
2018-04-26T13:06:05.599Z,61.90
2018-04-26T13:08:33.528Z,62.00
2018-04-26T13:11:00.764Z,62.10
2018-04-26T13:13:27.937Z,62.10
2018-04-26T13:15:55.106Z,62.20
2018-04-26T13:18:22.314Z,62.20
2018-04-26T13:20:49.571Z,62.20
2018-04-26T13:23:16.851Z,62.30
2018-04-26T13:25:44.075Z,62.30
2018-04-26T13:28:11.246Z,62.10
2018-04-26T13:30:38.411Z,61.90
2018-04-26T13:33:05.632Z,61.70
2018-04-26T13:35:32.904Z,61.90
2018-04-26T13:38:00.137Z,61.60
2018-04-26T13:40:27.308Z,61.70
2018-04-26T13:42:54.468Z,62.00
2018-04-26T13:45:21.636Z,62.10
2018-04-26T13:47:48.807Z,62.10
2018-04-26T13:50:16.816Z,62.20
2018-04-26T13:52:43.984Z,62.20
2018-04-26T13:55:11.219Z,62.10
2018-04-26T13:57:38.393Z,62.00
2018-04-26T14:00:05.565Z,61.60
2018-04-26T14:02:32.736Z,61.70
2018-04-26T14:05:00.669Z,62.20
2018-04-26T14:07:27.864Z,62.20
2018-04-26T14:09:55.043Z,61.80
2018-04-26T14:12:22.200Z,62.10
2018-04-26T14:14:49.369Z,62.00
2018-04-26T14:17:16.535Z,62.10
2018-04-26T14:19:43.700Z,61.70
2018-04-26T14:22:11.628Z,62.00
2018-04-26T14:24:38.793Z,62.00
2018-04-26T14:27:06.001Z,61.80
2018-04-26T14:29:33.186Z,61.90
2018-04-26T14:32:00.365Z,61.90
2018-04-26T14:34:27.661Z,62.00
2018-04-26T14:36:54.826Z,62.10
2018-04-26T14:39:23.625Z,62.10
2018-04-26T14:41:50.913Z,62.10
2018-04-26T14:44:18.117Z,62.10
2018-04-26T14:46:45.285Z,62.20
2018-04-26T14:49:12.516Z,62.00
2018-04-26T14:51:39.681Z,62.00
2018-04-26T14:54:06.848Z,61.90
2018-04-26T14:56:34.013Z,61.90
2018-04-26T14:59:01.276Z,62.10
2018-04-26T15:01:28.444Z,62.30
2018-04-26T15:03:56.404Z,62.30
2018-04-26T15:06:23.655Z,62.30
2018-04-26T15:08:50.830Z,62.20
2018-04-26T15:11:18.942Z,61.80
2018-04-26T15:13:46.120Z,61.90
2018-04-26T15:16:13.349Z,62.00
2018-04-26T15:18:40.516Z,61.80
2018-04-26T15:21:07.758Z,61.90
2018-04-26T15:23:35.014Z,62.00
2018-04-26T15:26:02.182Z,62.50
2018-04-26T15:28:29.348Z,61.80
2018-04-26T15:30:56.665Z,61.70
2018-04-26T15:33:23.914Z,61.90
2018-04-26T15:35:51.307Z,61.80
2018-04-26T15:38:19.276Z,62.50
2018-04-26T15:40:46.446Z,62.20
2018-04-26T15:43:14.468Z,62.00
2018-04-26T15:45:41.664Z,61.90
2018-04-26T15:48:09.595Z,62.10
2018-04-26T15:50:51.673Z,62.10
2018-04-26T15:53:24.681Z,62.10
2018-04-26T15:55:58.009Z,61.90
2018-04-26T15:58:32.034Z,61.80
2018-04-26T16:01:11.501Z,61.60
2018-04-26T16:03:44.759Z,61.50
2018-04-26T16:06:30.327Z,61.50
2018-04-26T16:09:03.352Z,61.60
2018-04-26T16:11:37.201Z,61.30
2018-04-26T16:14:24.948Z,61.20
2018-04-26T16:17:07.428Z,60.70
2018-04-26T16:19:46.554Z,60.70
2018-04-26T16:22:25.480Z,60.50
2018-04-26T16:24:58.664Z,60.40
2018-04-26T16:27:37.695Z,60.40
2018-04-26T16:30:10.783Z,60.50
2018-04-26T16:32:44.112Z,60.70
2018-04-26T16:35:21.127Z,60.90
2018-04-26T16:38:00.125Z,60.90
2018-04-26T16:40:28.068Z,61.10
2018-04-26T16:42:55.316Z,61.10
2018-04-26T16:45:22.600Z,61.20
2018-04-26T16:47:49.764Z,61.10
2018-04-26T16:50:17.012Z,61.10
2018-04-26T16:52:44.203Z,61.20
2018-04-26T16:55:11.381Z,61.30
2018-04-26T16:57:38.636Z,61.10
2018-04-26T17:03:02.150Z,61.10
2018-04-26T17:05:29.324Z,61.10
2018-04-26T17:07:56.553Z,61.00
2018-04-26T17:10:23.808Z,61.10
2018-04-26T17:12:54.542Z,61.10
2018-04-26T17:15:22.395Z,61.10
2018-04-26T17:17:49.593Z,61.10
2018-04-26T17:20:16.761Z,61.10
2018-04-26T17:22:44.729Z,61.10
2018-04-26T17:25:12.756Z,61.20
2018-04-26T17:27:39.957Z,60.80
2018-04-26T17:30:07.894Z,60.70
2018-04-26T17:32:35.948Z,60.70
2018-04-26T17:35:03.201Z,60.70
2018-04-26T17:37:30.457Z,60.60
2018-04-26T17:39:57.670Z,60.70
2018-04-26T17:42:24.927Z,60.70
2018-04-26T17:44:52.069Z,60.70
2018-04-26T17:47:20.011Z,60.80
2018-04-26T17:49:47.268Z,60.80
2018-04-26T17:52:14.489Z,60.80
2018-04-26T17:54:41.684Z,60.80
2018-04-26T17:57:08.907Z,60.90
2018-04-26T17:59:36.148Z,60.90
2018-04-26T18:02:03.626Z,60.80
2018-04-26T18:04:30.827Z,60.80
2018-04-26T18:06:59.509Z,60.70
2018-04-26T18:09:27.574Z,60.70
2018-04-26T18:11:54.725Z,60.70
2018-04-26T18:14:22.653Z,60.80
2018-04-26T18:16:49.864Z,60.70
2018-04-26T18:19:17.861Z,60.80
2018-04-26T18:21:45.033Z,60.80
2018-04-26T18:24:12.265Z,60.90
2018-04-26T18:26:39.521Z,60.80
2018-04-26T18:29:06.688Z,60.70
2018-04-26T18:31:33.920Z,60.80
2018-04-26T18:34:01.098Z,60.70
2018-04-26T18:36:28.272Z,60.70
2018-04-26T18:38:56.230Z,61.50
2018-04-26T18:41:23.450Z,61.00
2018-04-26T18:43:50.625Z,60.90
2018-04-26T18:46:17.836Z,60.80
2018-04-26T18:48:45.021Z,60.80
2018-04-26T18:51:12.191Z,61.50
2018-04-26T18:53:39.519Z,60.70
2018-04-26T18:56:07.500Z,60.80
2018-04-26T18:58:34.839Z,60.50
2018-04-26T19:01:03.017Z,60.90
2018-04-26T19:03:30.307Z,60.90
2018-04-26T19:05:57.560Z,60.90
2018-04-26T19:08:25.516Z,60.90
2018-04-26T19:10:52.705Z,61.00
2018-04-26T19:13:19.935Z,61.00
2018-04-26T19:15:47.288Z,61.00
2018-04-26T19:18:15.358Z,61.10
2018-04-26T19:20:42.610Z,61.00
2018-04-26T19:23:09.870Z,61.10
2018-04-26T19:25:37.081Z,61.10
2018-04-26T19:28:04.253Z,61.10
2018-04-26T19:30:31.425Z,61.10
2018-04-26T19:32:59.360Z,61.00
2018-04-26T19:35:26.607Z,61.00
2018-04-26T19:37:53.862Z,61.00
2018-04-26T19:40:27.388Z,61.00
2018-04-26T19:43:08.010Z,60.90
2018-04-26T19:45:41.537Z,61.00
2018-04-26T19:48:12.070Z,61.00
2018-04-26T19:50:41.272Z,61.10
2018-04-26T19:53:10.917Z,61.00
2018-04-26T19:55:43.186Z,60.90
2018-04-26T19:58:17.275Z,61.60
2018-04-26T20:00:47.325Z,60.90
2018-04-26T20:03:25.425Z,60.90
2018-04-26T20:06:01.206Z,60.90
2018-04-26T20:08:34.999Z,61.00
2018-04-26T20:11:05.281Z,60.80
2018-04-26T20:13:40.527Z,60.70
2018-04-26T20:16:18.517Z,60.70
2018-04-26T20:21:31.195Z,60.70
2018-04-26T20:23:59.420Z,60.70
2018-04-26T20:26:26.812Z,60.70
2018-04-26T20:28:53.995Z,60.60
2018-04-26T20:31:21.932Z,60.60
2018-04-26T20:33:49.153Z,61.00
2018-04-26T20:36:17.854Z,60.60
2018-04-26T20:38:45.125Z,60.60
2018-04-26T20:41:14.391Z,60.70
2018-04-26T20:43:44.109Z,60.70
2018-04-26T20:46:12.298Z,60.70
2018-04-26T20:48:42.109Z,60.60
2018-04-26T20:51:15.081Z,60.30
2018-04-26T20:53:45.129Z,60.30
2018-04-26T20:56:17.389Z,60.30
2018-04-26T20:58:52.202Z,60.30
2018-04-26T21:01:25.229Z,60.30
2018-04-26T21:04:00.209Z,60.40
2018-04-26T21:06:38.233Z,60.30
2018-04-26T21:09:08.100Z,60.30
2018-04-26T21:11:39.701Z,60.30
2018-04-26T21:14:12.230Z,60.40
2018-04-26T21:19:32.843Z,59.90
2018-04-26T21:22:06.910Z,60.40
2018-04-26T21:24:34.985Z,60.30
2018-04-26T21:27:02.153Z,60.30
2018-04-26T21:29:29.448Z,60.40
2018-04-26T21:31:57.381Z,60.40
2018-04-26T21:34:24.620Z,60.40
2018-04-26T21:36:51.792Z,60.30
2018-04-26T21:39:18.955Z,60.50
2018-04-26T21:41:46.149Z,60.40
2018-04-26T21:44:13.317Z,60.50
2018-04-26T21:46:40.571Z,60.40
2018-04-26T21:49:07.826Z,60.40
2018-04-26T21:51:40.733Z,60.40
2018-04-26T21:54:13.620Z,60.40
2018-04-26T21:56:46.461Z,61.10
2018-04-26T21:59:19.499Z,60.40
2018-04-26T22:01:52.340Z,60.50
2018-04-26T22:04:23.005Z,60.40
2018-04-26T22:06:50.169Z,60.40
2018-04-26T22:09:17.392Z,60.30
2018-04-26T22:11:44.559Z,60.30
2018-04-26T22:14:11.795Z,60.30
2018-04-26T22:16:38.963Z,60.30
2018-04-26T22:19:06.201Z,60.20
2018-04-26T22:21:33.457Z,60.30
2018-04-26T22:24:00.707Z,60.50
2018-04-26T22:26:27.962Z,60.30
2018-04-26T22:28:55.133Z,60.30
2018-04-26T22:31:22.467Z,60.30
2018-04-26T22:33:49.721Z,60.30
2018-04-26T22:36:16.889Z,60.30
2018-04-26T22:38:44.120Z,60.30
2018-04-26T22:41:11.285Z,60.10
2018-04-26T22:43:38.528Z,60.20
2018-04-26T22:46:05.696Z,60.20
2018-04-26T22:48:32.860Z,60.10
2018-04-26T22:51:00.020Z,60.20
2018-04-26T22:53:27.184Z,60.20
2018-04-26T22:55:55.117Z,60.90
2018-04-26T22:58:22.289Z,60.20
2018-04-26T23:00:49.451Z,60.30
2018-04-26T23:03:16.621Z,60.20
2018-04-26T23:05:44.588Z,60.30
2018-04-26T23:08:12.524Z,60.30
2018-04-26T23:10:39.691Z,60.20
2018-04-26T23:13:07.823Z,60.30
2018-04-26T23:15:35.009Z,60.30
2018-04-26T23:18:02.177Z,60.00
2018-04-26T23:20:30.129Z,60.10
2018-04-26T23:22:57.348Z,60.10
2018-04-26T23:25:24.597Z,60.20
2018-04-26T23:27:51.759Z,60.20
2018-04-26T23:30:18.925Z,60.20
2018-04-26T23:32:46.152Z,60.10
2018-04-26T23:35:13.409Z,60.10
2018-04-26T23:37:40.584Z,60.20
2018-04-26T23:40:07.884Z,60.10
2018-04-26T23:42:35.887Z,60.20
2018-04-26T23:45:03.056Z,60.20
2018-04-26T23:47:30.249Z,60.20
2018-04-26T23:49:58.176Z,60.20
2018-04-26T23:52:25.345Z,60.00
2018-04-26T23:54:52.513Z,60.10
2018-04-26T23:57:20.452Z,60.00
2018-04-26T23:59:47.689Z,59.90
